sensor_id;sensor_type;location;lat;lon;timestamp;temperature;humidity
38500;DHT22;24269;51.894;4.622;2022-09-27T00:01:13;10.60;99.90
38500;DHT22;24269;51.894;4.622;2022-09-27T00:03:40;10.60;99.90
38500;DHT22;24269;51.894;4.622;2022-09-27T00:06:11;10.60;99.90
38500;DHT22;24269;51.894;4.622;2022-09-27T00:08:37;10.60;99.90
38500;DHT22;24269;51.894;4.622;2022-09-27T00:11:16;10.60;99.90
38500;DHT22;24269;51.894;4.622;2022-09-27T00:13:44;10.60;99.90
38500;DHT22;24269;51.894;4.622;2022-09-27T00:16:10;10.60;99.90
38500;DHT22;24269;51.894;4.622;2022-09-27T00:18:36;10.70;99.90
38500;DHT22;24269;51.894;4.622;2022-09-27T00:21:10;10.70;99.90
38500;DHT22;24269;51.894;4.622;2022-09-27T00:23:37;10.70;99.90
38500;DHT22;24269;51.894;4.622;2022-09-27T00:26:03;10.70;99.90
38500;DHT22;24269;51.894;4.622;2022-09-27T00:28:29;10.70;99.90
38500;DHT22;24269;51.894;4.622;2022-09-27T00:30:55;10.70;99.90
38500;DHT22;24269;51.894;4.622;2022-09-27T00:33:21;10.70;99.90
38500;DHT22;24269;51.894;4.622;2022-09-27T00:35:47;10.60;99.90
38500;DHT22;24269;51.894;4.622;2022-09-27T00:38:12;10.60;99.90
38500;DHT22;24269;51.894;4.622;2022-09-27T00:40:38;10.50;99.90
38500;DHT22;24269;51.894;4.622;2022-09-27T00:43:16;10.50;99.90
38500;DHT22;24269;51.894;4.622;2022-09-27T00:45:43;10.40;99.90
38500;DHT22;24269;51.894;4.622;2022-09-27T00:48:13;10.40;99.90
38500;DHT22;24269;51.894;4.622;2022-09-27T00:50:41;10.40;99.90
38500;DHT22;24269;51.894;4.622;2022-09-27T00:53:17;10.50;99.90
38500;DHT22;24269;51.894;4.622;2022-09-27T00:55:49;10.50;99.90
38500;DHT22;24269;51.894;4.622;2022-09-27T00:58:18;10.40;99.90
38500;DHT22;24269;51.894;4.622;2022-09-27T01:00:48;10.50;99.90
38500;DHT22;24269;51.894;4.622;2022-09-27T01:03:24;10.50;99.90
38500;DHT22;24269;51.894;4.622;2022-09-27T01:05:51;10.50;99.90
38500;DHT22;24269;51.894;4.622;2022-09-27T01:08:17;10.50;99.90
38500;DHT22;24269;51.894;4.622;2022-09-27T01:10:57;10.50;99.90
38500;DHT22;24269;51.894;4.622;2022-09-27T01:13:42;10.50;99.90
38500;DHT22;24269;51.894;4.622;2022-09-27T01:16:20;10.50;99.90
38500;DHT22;24269;51.894;4.622;2022-09-27T01:19:03;10.50;99.90
38500;DHT22;24269;51.894;4.622;2022-09-27T01:21:44;10.50;99.90
38500;DHT22;24269;51.894;4.622;2022-09-27T01:31:54;10.60;99.90
38500;DHT22;24269;51.894;4.622;2022-09-27T01:34:43;10.60;99.90
38500;DHT22;24269;51.894;4.622;2022-09-27T01:40:31;10.60;99.90
38500;DHT22;24269;51.894;4.622;2022-09-27T01:43:23;10.60;99.90
38500;DHT22;24269;51.894;4.622;2022-09-27T01:46:14;10.60;99.90
38500;DHT22;24269;51.894;4.622;2022-09-27T01:48:44;10.60;99.90
38500;DHT22;24269;51.894;4.622;2022-09-27T01:51:19;10.60;99.90
38500;DHT22;24269;51.894;4.622;2022-09-27T01:53:49;10.60;99.90
38500;DHT22;24269;51.894;4.622;2022-09-27T01:56:24;10.50;99.90
38500;DHT22;24269;51.894;4.622;2022-09-27T01:58:52;10.50;99.90
38500;DHT22;24269;51.894;4.622;2022-09-27T02:01:20;10.60;99.90
38500;DHT22;24269;51.894;4.622;2022-09-27T02:03:49;10.60;99.90
38500;DHT22;24269;51.894;4.622;2022-09-27T02:06:22;10.60;99.90
38500;DHT22;24269;51.894;4.622;2022-09-27T02:11:29;10.60;99.90
38500;DHT22;24269;51.894;4.622;2022-09-27T02:13:57;10.50;99.90
38500;DHT22;24269;51.894;4.622;2022-09-27T02:25:03;10.50;99.90
38500;DHT22;24269;51.894;4.622;2022-09-27T02:27:35;10.40;99.90
38500;DHT22;24269;51.894;4.622;2022-09-27T02:30:13;10.40;99.90
38500;DHT22;24269;51.894;4.622;2022-09-27T02:32:41;10.50;99.90
38500;DHT22;24269;51.894;4.622;2022-09-27T02:35:15;10.40;99.90
38500;DHT22;24269;51.894;4.622;2022-09-27T02:37:41;10.40;99.90
38500;DHT22;24269;51.894;4.622;2022-09-27T02:40:07;10.40;99.90
38500;DHT22;24269;51.894;4.622;2022-09-27T02:42:34;10.40;99.90
38500;DHT22;24269;51.894;4.622;2022-09-27T02:45:01;10.50;99.90
38500;DHT22;24269;51.894;4.622;2022-09-27T03:04:18;10.40;99.90
38500;DHT22;24269;51.894;4.622;2022-09-27T03:06:48;10.40;99.90
38500;DHT22;24269;51.894;4.622;2022-09-27T03:09:22;10.30;99.90
38500;DHT22;24269;51.894;4.622;2022-09-27T03:11:48;10.30;99.90
38500;DHT22;24269;51.894;4.622;2022-09-27T03:14:14;10.30;99.90
38500;DHT22;24269;51.894;4.622;2022-09-27T03:16:40;10.30;99.90
38500;DHT22;24269;51.894;4.622;2022-09-27T03:19:05;10.30;99.90
38500;DHT22;24269;51.894;4.622;2022-09-27T03:21:31;10.30;99.90
38500;DHT22;24269;51.894;4.622;2022-09-27T03:23:57;10.30;99.90
38500;DHT22;24269;51.894;4.622;2022-09-27T03:26:22;10.30;99.90
38500;DHT22;24269;51.894;4.622;2022-09-27T03:28:48;10.30;99.90
38500;DHT22;24269;51.894;4.622;2022-09-27T03:31:14;10.30;99.90
38500;DHT22;24269;51.894;4.622;2022-09-27T03:33:39;10.30;99.90
38500;DHT22;24269;51.894;4.622;2022-09-27T03:36:06;10.30;99.90
38500;DHT22;24269;51.894;4.622;2022-09-27T03:38:31;10.30;99.90
38500;DHT22;24269;51.894;4.622;2022-09-27T03:40:57;10.20;99.90
38500;DHT22;24269;51.894;4.622;2022-09-27T03:43:23;10.30;99.90
38500;DHT22;24269;51.894;4.622;2022-09-27T03:45:49;10.20;99.90
38500;DHT22;24269;51.894;4.622;2022-09-27T03:48:15;10.20;99.90
38500;DHT22;24269;51.894;4.622;2022-09-27T03:50:41;10.30;99.90
38500;DHT22;24269;51.894;4.622;2022-09-27T03:53:06;10.20;99.90
38500;DHT22;24269;51.894;4.622;2022-09-27T03:55:32;10.30;99.90
38500;DHT22;24269;51.894;4.622;2022-09-27T03:57:57;10.30;99.90
38500;DHT22;24269;51.894;4.622;2022-09-27T04:00:23;10.30;99.90
38500;DHT22;24269;51.894;4.622;2022-09-27T04:02:50;10.30;99.90
38500;DHT22;24269;51.894;4.622;2022-09-27T04:05:16;10.30;99.90
38500;DHT22;24269;51.894;4.622;2022-09-27T04:07:46;10.30;99.90
38500;DHT22;24269;51.894;4.622;2022-09-27T04:10:12;10.30;99.90
38500;DHT22;24269;51.894;4.622;2022-09-27T04:12:39;10.20;99.90
38500;DHT22;24269;51.894;4.622;2022-09-27T04:15:05;10.30;99.90
38500;DHT22;24269;51.894;4.622;2022-09-27T04:17:33;10.30;99.90
38500;DHT22;24269;51.894;4.622;2022-09-27T04:19:59;10.20;99.90
38500;DHT22;24269;51.894;4.622;2022-09-27T04:22:27;10.20;99.90
38500;DHT22;24269;51.894;4.622;2022-09-27T04:24:53;10.20;99.90
38500;DHT22;24269;51.894;4.622;2022-09-27T04:27:19;10.20;99.90
38500;DHT22;24269;51.894;4.622;2022-09-27T04:29:44;10.20;99.90
38500;DHT22;24269;51.894;4.622;2022-09-27T04:32:11;10.10;99.90
38500;DHT22;24269;51.894;4.622;2022-09-27T04:34:38;10.10;99.90
38500;DHT22;24269;51.894;4.622;2022-09-27T04:37:22;10.10;99.90
38500;DHT22;24269;51.894;4.622;2022-09-27T04:39:48;10.20;99.90
38500;DHT22;24269;51.894;4.622;2022-09-27T04:42:15;10.10;99.90
38500;DHT22;24269;51.894;4.622;2022-09-27T04:44:41;10.10;99.90
38500;DHT22;24269;51.894;4.622;2022-09-27T04:47:06;10.10;99.90
38500;DHT22;24269;51.894;4.622;2022-09-27T04:49:32;10.10;99.90
38500;DHT22;24269;51.894;4.622;2022-09-27T04:51:57;10.10;99.90
38500;DHT22;24269;51.894;4.622;2022-09-27T04:54:23;10.10;99.90
38500;DHT22;24269;51.894;4.622;2022-09-27T04:56:49;10.10;99.90
38500;DHT22;24269;51.894;4.622;2022-09-27T04:59:14;10.10;99.90
38500;DHT22;24269;51.894;4.622;2022-09-27T05:01:40;10.10;99.90
38500;DHT22;24269;51.894;4.622;2022-09-27T05:04:06;10.10;99.90
38500;DHT22;24269;51.894;4.622;2022-09-27T05:06:31;10.10;99.90
38500;DHT22;24269;51.894;4.622;2022-09-27T05:08:57;10.00;99.90
38500;DHT22;24269;51.894;4.622;2022-09-27T05:11:23;10.00;99.90
38500;DHT22;24269;51.894;4.622;2022-09-27T05:13:49;9.90;99.90
38500;DHT22;24269;51.894;4.622;2022-09-27T05:16:15;9.90;99.90
38500;DHT22;24269;51.894;4.622;2022-09-27T05:18:41;9.90;99.90
38500;DHT22;24269;51.894;4.622;2022-09-27T05:21:07;9.90;99.90
38500;DHT22;24269;51.894;4.622;2022-09-27T05:23:32;9.90;99.90
38500;DHT22;24269;51.894;4.622;2022-09-27T05:26:05;9.90;99.90
38500;DHT22;24269;51.894;4.622;2022-09-27T05:28:31;9.80;99.90
38500;DHT22;24269;51.894;4.622;2022-09-27T05:30:59;9.80;99.90
38500;DHT22;24269;51.894;4.622;2022-09-27T05:33:25;9.70;99.90
38500;DHT22;24269;51.894;4.622;2022-09-27T05:35:55;9.70;99.90
38500;DHT22;24269;51.894;4.622;2022-09-27T05:38:22;9.80;99.90
38500;DHT22;24269;51.894;4.622;2022-09-27T05:40:47;9.80;99.90
38500;DHT22;24269;51.894;4.622;2022-09-27T05:43:15;9.80;99.90
38500;DHT22;24269;51.894;4.622;2022-09-27T05:45:41;9.80;99.90
38500;DHT22;24269;51.894;4.622;2022-09-27T05:48:09;9.80;99.90
38500;DHT22;24269;51.894;4.622;2022-09-27T05:50:34;9.80;99.90
38500;DHT22;24269;51.894;4.622;2022-09-27T05:53:00;9.80;99.90
38500;DHT22;24269;51.894;4.622;2022-09-27T05:55:26;9.80;99.90
38500;DHT22;24269;51.894;4.622;2022-09-27T05:58:05;9.80;99.90
38500;DHT22;24269;51.894;4.622;2022-09-27T06:00:31;9.80;99.90
38500;DHT22;24269;51.894;4.622;2022-09-27T06:03:04;9.90;99.90
38500;DHT22;24269;51.894;4.622;2022-09-27T06:05:33;9.90;99.90
38500;DHT22;24269;51.894;4.622;2022-09-27T06:08:01;9.90;99.90
38500;DHT22;24269;51.894;4.622;2022-09-27T06:10:28;9.90;99.90
38500;DHT22;24269;51.894;4.622;2022-09-27T06:13:01;10.00;99.90
38500;DHT22;24269;51.894;4.622;2022-09-27T06:15:31;9.90;99.90
38500;DHT22;24269;51.894;4.622;2022-09-27T06:18:03;10.00;99.90
38500;DHT22;24269;51.894;4.622;2022-09-27T06:20:29;10.00;99.90
38500;DHT22;24269;51.894;4.622;2022-09-27T06:23:05;10.00;99.90
38500;DHT22;24269;51.894;4.622;2022-09-27T06:25:32;10.00;99.90
38500;DHT22;24269;51.894;4.622;2022-09-27T06:27:58;9.90;99.90
38500;DHT22;24269;51.894;4.622;2022-09-27T06:30:23;10.00;99.90
38500;DHT22;24269;51.894;4.622;2022-09-27T06:33:00;10.00;99.90
38500;DHT22;24269;51.894;4.622;2022-09-27T06:35:28;10.00;99.90
38500;DHT22;24269;51.894;4.622;2022-09-27T06:37:54;10.00;99.90
38500;DHT22;24269;51.894;4.622;2022-09-27T06:40:20;10.00;99.90
38500;DHT22;24269;51.894;4.622;2022-09-27T06:42:47;10.00;99.90
38500;DHT22;24269;51.894;4.622;2022-09-27T06:45:13;10.00;99.90
38500;DHT22;24269;51.894;4.622;2022-09-27T06:47:39;10.10;99.90
38500;DHT22;24269;51.894;4.622;2022-09-27T06:50:05;10.10;99.90
38500;DHT22;24269;51.894;4.622;2022-09-27T06:52:32;10.10;99.90
38500;DHT22;24269;51.894;4.622;2022-09-27T06:54:59;10.10;99.90
38500;DHT22;24269;51.894;4.622;2022-09-27T06:57:25;10.10;99.90
38500;DHT22;24269;51.894;4.622;2022-09-27T07:00:10;10.10;99.90
38500;DHT22;24269;51.894;4.622;2022-09-27T07:02:49;10.20;99.90
38500;DHT22;24269;51.894;4.622;2022-09-27T07:05:18;10.10;99.90
38500;DHT22;24269;51.894;4.622;2022-09-27T07:07:44;10.10;99.90
38500;DHT22;24269;51.894;4.622;2022-09-27T07:10:15;10.20;99.90
38500;DHT22;24269;51.894;4.622;2022-09-27T07:12:43;10.20;99.90
38500;DHT22;24269;51.894;4.622;2022-09-27T07:15:13;10.30;99.90
38500;DHT22;24269;51.894;4.622;2022-09-27T07:17:39;10.30;99.90
38500;DHT22;24269;51.894;4.622;2022-09-27T07:20:05;10.30;99.90
38500;DHT22;24269;51.894;4.622;2022-09-27T07:22:31;10.30;99.90
38500;DHT22;24269;51.894;4.622;2022-09-27T07:24:56;10.30;99.90
38500;DHT22;24269;51.894;4.622;2022-09-27T07:27:22;10.40;99.90
38500;DHT22;24269;51.894;4.622;2022-09-27T07:29:49;10.40;99.90
38500;DHT22;24269;51.894;4.622;2022-09-27T07:32:15;10.40;99.90
38500;DHT22;24269;51.894;4.622;2022-09-27T07:34:40;10.40;99.90
38500;DHT22;24269;51.894;4.622;2022-09-27T07:37:06;10.40;99.90
38500;DHT22;24269;51.894;4.622;2022-09-27T07:39:32;10.30;99.90
38500;DHT22;24269;51.894;4.622;2022-09-27T07:41:58;10.30;99.90
38500;DHT22;24269;51.894;4.622;2022-09-27T07:44:23;10.40;99.90
38500;DHT22;24269;51.894;4.622;2022-09-27T07:46:49;10.40;99.90
38500;DHT22;24269;51.894;4.622;2022-09-27T07:49:15;10.50;99.90
38500;DHT22;24269;51.894;4.622;2022-09-27T07:51:41;10.50;99.90
38500;DHT22;24269;51.894;4.622;2022-09-27T07:54:06;10.60;99.90
38500;DHT22;24269;51.894;4.622;2022-09-27T07:56:32;10.70;99.90
38500;DHT22;24269;51.894;4.622;2022-09-27T07:58:57;10.70;99.90
38500;DHT22;24269;51.894;4.622;2022-09-27T08:01:23;10.80;99.90
38500;DHT22;24269;51.894;4.622;2022-09-27T08:03:50;10.80;99.90
38500;DHT22;24269;51.894;4.622;2022-09-27T08:06:15;10.90;99.90
38500;DHT22;24269;51.894;4.622;2022-09-27T08:08:43;10.90;99.90
38500;DHT22;24269;51.894;4.622;2022-09-27T08:11:12;11.00;99.90
38500;DHT22;24269;51.894;4.622;2022-09-27T08:13:42;11.00;99.90
38500;DHT22;24269;51.894;4.622;2022-09-27T08:16:08;11.00;99.90
38500;DHT22;24269;51.894;4.622;2022-09-27T08:18:35;10.90;99.90
38500;DHT22;24269;51.894;4.622;2022-09-27T08:21:01;10.90;99.90
38500;DHT22;24269;51.894;4.622;2022-09-27T08:23:27;10.80;99.90
38500;DHT22;24269;51.894;4.622;2022-09-27T08:25:53;10.80;99.90
38500;DHT22;24269;51.894;4.622;2022-09-27T08:28:19;10.80;99.90
38500;DHT22;24269;51.894;4.622;2022-09-27T08:30:47;10.70;99.90
38500;DHT22;24269;51.894;4.622;2022-09-27T08:33:13;10.70;99.90
38500;DHT22;24269;51.894;4.622;2022-09-27T08:35:38;10.70;99.90
38500;DHT22;24269;51.894;4.622;2022-09-27T08:38:04;10.70;99.90
38500;DHT22;24269;51.894;4.622;2022-09-27T08:43:19;10.60;99.90
38500;DHT22;24269;51.894;4.622;2022-09-27T08:48:42;10.60;99.90
38500;DHT22;24269;51.894;4.622;2022-09-27T08:51:10;10.60;99.90
38500;DHT22;24269;51.894;4.622;2022-09-27T08:53:50;10.50;99.90
38500;DHT22;24269;51.894;4.622;2022-09-27T08:56:18;10.50;99.90
38500;DHT22;24269;51.894;4.622;2022-09-27T08:58:50;10.50;99.90
38500;DHT22;24269;51.894;4.622;2022-09-27T09:01:17;10.60;99.90
38500;DHT22;24269;51.894;4.622;2022-09-27T09:03:47;10.60;99.90
38500;DHT22;24269;51.894;4.622;2022-09-27T09:06:45;10.60;99.90
38500;DHT22;24269;51.894;4.622;2022-09-27T09:09:25;10.60;99.90
38500;DHT22;24269;51.894;4.622;2022-09-27T09:20:10;10.80;99.90
38500;DHT22;24269;51.894;4.622;2022-09-27T09:28:51;10.80;99.90
38500;DHT22;24269;51.894;4.622;2022-09-27T09:31:25;10.70;99.90
38500;DHT22;24269;51.894;4.622;2022-09-27T09:37:01;10.70;99.90
38500;DHT22;24269;51.894;4.622;2022-09-27T09:39:42;10.80;99.90
38500;DHT22;24269;51.894;4.622;2022-09-27T09:42:31;10.70;99.90
38500;DHT22;24269;51.894;4.622;2022-09-27T09:45:14;10.70;99.90
38500;DHT22;24269;51.894;4.622;2022-09-27T09:48:04;10.60;99.90
38500;DHT22;24269;51.894;4.622;2022-09-27T09:50:38;10.60;99.90
38500;DHT22;24269;51.894;4.622;2022-09-27T09:55:39;10.60;99.90
38500;DHT22;24269;51.894;4.622;2022-09-27T09:58:33;10.60;99.90
38500;DHT22;24269;51.894;4.622;2022-09-27T10:03:36;10.40;99.90
38500;DHT22;24269;51.894;4.622;2022-09-27T10:06:01;10.40;99.90
38500;DHT22;24269;51.894;4.622;2022-09-27T10:08:27;10.40;99.90
38500;DHT22;24269;51.894;4.622;2022-09-27T10:10:52;10.30;99.90
38500;DHT22;24269;51.894;4.622;2022-09-27T10:13:20;10.30;99.90
38500;DHT22;24269;51.894;4.622;2022-09-27T10:16:07;10.20;99.90
38500;DHT22;24269;51.894;4.622;2022-09-27T10:18:36;10.20;99.90
38500;DHT22;24269;51.894;4.622;2022-09-27T10:21:07;10.20;99.90
38500;DHT22;24269;51.894;4.622;2022-09-27T10:23:35;10.20;99.90
38500;DHT22;24269;51.894;4.622;2022-09-27T10:26:03;10.20;99.90
38500;DHT22;24269;51.894;4.622;2022-09-27T10:28:33;10.10;99.90
38500;DHT22;24269;51.894;4.622;2022-09-27T10:31:06;10.20;99.90
38500;DHT22;24269;51.894;4.622;2022-09-27T10:33:33;10.10;99.90
38500;DHT22;24269;51.894;4.622;2022-09-27T10:36:00;10.10;99.90
38500;DHT22;24269;51.894;4.622;2022-09-27T10:38:33;10.10;99.90
38500;DHT22;24269;51.894;4.622;2022-09-27T10:41:24;10.10;99.90
38500;DHT22;24269;51.894;4.622;2022-09-27T10:43:50;10.10;99.90
38500;DHT22;24269;51.894;4.622;2022-09-27T10:46:25;10.10;99.90
38500;DHT22;24269;51.894;4.622;2022-09-27T10:51:34;10.10;99.90
38500;DHT22;24269;51.894;4.622;2022-09-27T10:54:00;10.10;99.90
38500;DHT22;24269;51.894;4.622;2022-09-27T10:56:34;10.20;99.90
38500;DHT22;24269;51.894;4.622;2022-09-27T10:59:00;10.20;99.90
38500;DHT22;24269;51.894;4.622;2022-09-27T11:01:40;10.20;99.90
38500;DHT22;24269;51.894;4.622;2022-09-27T11:04:20;10.10;99.90
38500;DHT22;24269;51.894;4.622;2022-09-27T11:06:47;10.20;99.90
38500;DHT22;24269;51.894;4.622;2022-09-27T11:09:20;10.20;99.90
38500;DHT22;24269;51.894;4.622;2022-09-27T11:11:49;10.30;99.90
38500;DHT22;24269;51.894;4.622;2022-09-27T11:14:23;10.20;99.90
38500;DHT22;24269;51.894;4.622;2022-09-27T11:28:21;10.10;99.90
38500;DHT22;24269;51.894;4.622;2022-09-27T11:30:58;10.10;99.90
38500;DHT22;24269;51.894;4.622;2022-09-27T11:36:33;10.30;99.90
38500;DHT22;24269;51.894;4.622;2022-09-27T11:39:25;10.40;99.90
38500;DHT22;24269;51.894;4.622;2022-09-27T11:48:17;10.80;99.90
38500;DHT22;24269;51.894;4.622;2022-09-27T11:51:12;11.00;99.90
38500;DHT22;24269;51.894;4.622;2022-09-27T11:54:02;11.20;99.90
38500;DHT22;24269;51.894;4.622;2022-09-27T12:10:17;11.50;99.90
38500;DHT22;24269;51.894;4.622;2022-09-27T12:12:45;11.50;99.90
38500;DHT22;24269;51.894;4.622;2022-09-27T12:15:21;11.60;99.90
38500;DHT22;24269;51.894;4.622;2022-09-27T12:17:54;11.70;99.90
38500;DHT22;24269;51.894;4.622;2022-09-27T12:20:30;11.80;99.90
38500;DHT22;24269;51.894;4.622;2022-09-27T12:23:10;11.90;99.90
38500;DHT22;24269;51.894;4.622;2022-09-27T12:25:40;12.20;99.90
38500;DHT22;24269;51.894;4.622;2022-09-27T12:31:03;12.50;99.90
38500;DHT22;24269;51.894;4.622;2022-09-27T12:33:50;12.70;99.90
38500;DHT22;24269;51.894;4.622;2022-09-27T12:36:19;12.80;99.90
38500;DHT22;24269;51.894;4.622;2022-09-27T12:39:17;12.90;99.90
38500;DHT22;24269;51.894;4.622;2022-09-27T12:41:52;12.90;99.90
38500;DHT22;24269;51.894;4.622;2022-09-27T12:44:20;13.00;99.90
38500;DHT22;24269;51.894;4.622;2022-09-27T12:46:58;12.90;99.90
38500;DHT22;24269;51.894;4.622;2022-09-27T12:49:47;12.90;99.90
38500;DHT22;24269;51.894;4.622;2022-09-27T12:52:22;12.90;99.90
38500;DHT22;24269;51.894;4.622;2022-09-27T12:55:14;12.80;99.90
38500;DHT22;24269;51.894;4.622;2022-09-27T12:58:10;12.80;99.90
38500;DHT22;24269;51.894;4.622;2022-09-27T13:00:56;13.00;99.90
38500;DHT22;24269;51.894;4.622;2022-09-27T13:03:29;13.30;99.90
38500;DHT22;24269;51.894;4.622;2022-09-27T13:06:32;13.60;99.90
38500;DHT22;24269;51.894;4.622;2022-09-27T13:15:00;13.70;99.90
38500;DHT22;24269;51.894;4.622;2022-09-27T13:17:53;13.40;99.90
38500;DHT22;24269;51.894;4.622;2022-09-27T13:22:58;12.80;99.90
38500;DHT22;24269;51.894;4.622;2022-09-27T13:36:24;13.00;99.90
38500;DHT22;24269;51.894;4.622;2022-09-27T13:47:19;12.70;99.90
38500;DHT22;24269;51.894;4.622;2022-09-27T13:49:52;12.70;99.90
38500;DHT22;24269;51.894;4.622;2022-09-27T13:55:02;12.70;99.90
38500;DHT22;24269;51.894;4.622;2022-09-27T13:57:50;12.70;99.90
38500;DHT22;24269;51.894;4.622;2022-09-27T14:00:38;12.70;99.90
38500;DHT22;24269;51.894;4.622;2022-09-27T14:05:56;12.80;99.90
38500;DHT22;24269;51.894;4.622;2022-09-27T14:11:17;13.10;99.90
38500;DHT22;24269;51.894;4.622;2022-09-27T14:13:45;13.20;99.90
38500;DHT22;24269;51.894;4.622;2022-09-27T14:16:14;13.30;99.90
38500;DHT22;24269;51.894;4.622;2022-09-27T14:18:49;13.40;99.90
38500;DHT22;24269;51.894;4.622;2022-09-27T14:21:34;13.50;99.90
38500;DHT22;24269;51.894;4.622;2022-09-27T14:24:30;13.40;99.90
38500;DHT22;24269;51.894;4.622;2022-09-27T14:29:40;13.00;99.90
38500;DHT22;24269;51.894;4.622;2022-09-27T14:32:09;12.90;99.90
38500;DHT22;24269;51.894;4.622;2022-09-27T14:34:36;12.80;99.90
38500;DHT22;24269;51.894;4.622;2022-09-27T14:37:03;12.60;99.90
38500;DHT22;24269;51.894;4.622;2022-09-27T14:40:03;12.50;99.90
38500;DHT22;24269;51.894;4.622;2022-09-27T14:42:34;12.30;99.90
38500;DHT22;24269;51.894;4.622;2022-09-27T14:47:54;11.90;99.90
38500;DHT22;24269;51.894;4.622;2022-09-27T14:50:26;11.80;99.90
38500;DHT22;24269;51.894;4.622;2022-09-27T14:52:57;11.80;99.90
38500;DHT22;24269;51.894;4.622;2022-09-27T14:55:28;11.80;99.90
38500;DHT22;24269;51.894;4.622;2022-09-27T14:57:57;11.80;99.90
38500;DHT22;24269;51.894;4.622;2022-09-27T15:00:27;11.80;99.90
38500;DHT22;24269;51.894;4.622;2022-09-27T15:02:58;11.90;99.90
38500;DHT22;24269;51.894;4.622;2022-09-27T15:05:28;11.90;99.90
38500;DHT22;24269;51.894;4.622;2022-09-27T15:07:56;12.00;99.90
38500;DHT22;24269;51.894;4.622;2022-09-27T15:10:28;12.10;99.90
38500;DHT22;24269;51.894;4.622;2022-09-27T15:12:56;12.10;99.90
38500;DHT22;24269;51.894;4.622;2022-09-27T15:15:34;11.90;99.90
38500;DHT22;24269;51.894;4.622;2022-09-27T15:18:02;11.90;99.90
38500;DHT22;24269;51.894;4.622;2022-09-27T15:20:31;11.80;99.90
38500;DHT22;24269;51.894;4.622;2022-09-27T15:22:59;11.70;99.90
38500;DHT22;24269;51.894;4.622;2022-09-27T15:25:37;11.60;99.90
38500;DHT22;24269;51.894;4.622;2022-09-27T15:28:17;11.60;99.90
38500;DHT22;24269;51.894;4.622;2022-09-27T15:30:55;11.50;99.90
38500;DHT22;24269;51.894;4.622;2022-09-27T15:35:51;11.50;99.90
38500;DHT22;24269;51.894;4.622;2022-09-27T15:38:27;11.50;99.90
38500;DHT22;24269;51.894;4.622;2022-09-27T15:41:10;11.70;99.90
38500;DHT22;24269;51.894;4.622;2022-09-27T15:43:43;11.80;99.90
38500;DHT22;24269;51.894;4.622;2022-09-27T15:46:26;11.80;99.90
38500;DHT22;24269;51.894;4.622;2022-09-27T15:51:43;11.80;99.90
38500;DHT22;24269;51.894;4.622;2022-09-27T15:54:09;11.80;99.90
38500;DHT22;24269;51.894;4.622;2022-09-27T15:56:35;11.80;99.90
38500;DHT22;24269;51.894;4.622;2022-09-27T15:59:01;11.70;99.90
38500;DHT22;24269;51.894;4.622;2022-09-27T16:01:27;11.60;99.90
38500;DHT22;24269;51.894;4.622;2022-09-27T16:03:53;11.50;99.90
38500;DHT22;24269;51.894;4.622;2022-09-27T16:06:19;11.40;99.90
38500;DHT22;24269;51.894;4.622;2022-09-27T16:08:47;11.30;99.90
38500;DHT22;24269;51.894;4.622;2022-09-27T16:11:14;11.20;99.90
38500;DHT22;24269;51.894;4.622;2022-09-27T16:13:40;11.10;99.90
38500;DHT22;24269;51.894;4.622;2022-09-27T16:16:07;11.10;99.90
38500;DHT22;24269;51.894;4.622;2022-09-27T16:18:34;11.00;99.90
38500;DHT22;24269;51.894;4.622;2022-09-27T16:20:59;10.90;99.90
38500;DHT22;24269;51.894;4.622;2022-09-27T16:23:25;10.90;99.90
38500;DHT22;24269;51.894;4.622;2022-09-27T16:25:54;10.90;99.90
38500;DHT22;24269;51.894;4.622;2022-09-27T16:28:19;10.80;99.90
38500;DHT22;24269;51.894;4.622;2022-09-27T16:30:45;10.80;99.90
38500;DHT22;24269;51.894;4.622;2022-09-27T16:33:12;10.80;99.90
38500;DHT22;24269;51.894;4.622;2022-09-27T16:35:38;10.80;99.90
38500;DHT22;24269;51.894;4.622;2022-09-27T16:38:07;10.70;99.90
38500;DHT22;24269;51.894;4.622;2022-09-27T16:40:33;10.60;99.90
38500;DHT22;24269;51.894;4.622;2022-09-27T16:42:59;10.60;99.90
38500;DHT22;24269;51.894;4.622;2022-09-27T16:45:34;10.50;99.90
38500;DHT22;24269;51.894;4.622;2022-09-27T16:48:02;10.60;99.90
38500;DHT22;24269;51.894;4.622;2022-09-27T16:50:29;10.50;99.90
38500;DHT22;24269;51.894;4.622;2022-09-27T16:53:15;10.50;99.90
38500;DHT22;24269;51.894;4.622;2022-09-27T16:55:41;10.50;99.90
38500;DHT22;24269;51.894;4.622;2022-09-27T16:58:07;10.50;99.90
38500;DHT22;24269;51.894;4.622;2022-09-27T17:00:33;10.50;99.90
38500;DHT22;24269;51.894;4.622;2022-09-27T17:02:59;10.50;99.90
38500;DHT22;24269;51.894;4.622;2022-09-27T17:05:25;10.50;99.90
38500;DHT22;24269;51.894;4.622;2022-09-27T17:07:52;10.50;99.90
38500;DHT22;24269;51.894;4.622;2022-09-27T17:10:21;10.60;99.90
38500;DHT22;24269;51.894;4.622;2022-09-27T17:12:47;10.50;99.90
38500;DHT22;24269;51.894;4.622;2022-09-27T17:15:14;10.60;99.90
38500;DHT22;24269;51.894;4.622;2022-09-27T17:17:40;10.60;99.90
38500;DHT22;24269;51.894;4.622;2022-09-27T17:20:06;10.50;99.90
38500;DHT22;24269;51.894;4.622;2022-09-27T17:22:32;10.60;99.90
38500;DHT22;24269;51.894;4.622;2022-09-27T17:24:57;10.60;99.90
38500;DHT22;24269;51.894;4.622;2022-09-27T17:27:25;10.60;99.90
38500;DHT22;24269;51.894;4.622;2022-09-27T17:29:51;10.50;99.90
38500;DHT22;24269;51.894;4.622;2022-09-27T17:32:17;10.50;99.90
38500;DHT22;24269;51.894;4.622;2022-09-27T17:34:43;10.50;99.90
38500;DHT22;24269;51.894;4.622;2022-09-27T17:37:09;10.40;99.90
38500;DHT22;24269;51.894;4.622;2022-09-27T17:39:37;10.40;99.90
38500;DHT22;24269;51.894;4.622;2022-09-27T17:42:03;10.40;99.90
38500;DHT22;24269;51.894;4.622;2022-09-27T17:44:29;10.40;99.90
38500;DHT22;24269;51.894;4.622;2022-09-27T17:46:55;10.30;99.90
38500;DHT22;24269;51.894;4.622;2022-09-27T17:49:40;10.30;99.90
38500;DHT22;24269;51.894;4.622;2022-09-27T17:52:25;10.30;99.90
38500;DHT22;24269;51.894;4.622;2022-09-27T17:54:51;10.20;99.90
38500;DHT22;24269;51.894;4.622;2022-09-27T17:57:21;10.20;99.90
38500;DHT22;24269;51.894;4.622;2022-09-27T17:59:47;10.20;99.90
38500;DHT22;24269;51.894;4.622;2022-09-27T18:02:13;10.20;99.90
38500;DHT22;24269;51.894;4.622;2022-09-27T18:04:38;10.10;99.90
38500;DHT22;24269;51.894;4.622;2022-09-27T18:07:04;10.10;99.90
38500;DHT22;24269;51.894;4.622;2022-09-27T18:09:29;10.10;99.90
38500;DHT22;24269;51.894;4.622;2022-09-27T18:11:55;10.10;99.90
38500;DHT22;24269;51.894;4.622;2022-09-27T18:14:22;10.10;99.90
38500;DHT22;24269;51.894;4.622;2022-09-27T18:16:49;10.10;99.90
38500;DHT22;24269;51.894;4.622;2022-09-27T18:19:16;10.10;99.90
38500;DHT22;24269;51.894;4.622;2022-09-27T18:21:42;10.10;99.90
38500;DHT22;24269;51.894;4.622;2022-09-27T18:24:08;10.10;99.90
38500;DHT22;24269;51.894;4.622;2022-09-27T18:26:35;10.10;99.90